createdAt,value
2023-05-05T00:00:58.130Z,433.00
2023-05-05T00:01:58.142Z,400.00
2023-05-05T00:02:58.148Z,400.00
2023-05-05T00:03:58.217Z,400.00
2023-05-05T00:04:58.128Z,401.00
2023-05-05T00:05:58.129Z,422.00
2023-05-05T00:06:58.101Z,447.00
2023-05-05T00:07:58.092Z,477.00
2023-05-05T00:08:58.078Z,500.00
2023-05-05T00:09:58.075Z,499.00
2023-05-05T00:10:58.089Z,500.00
2023-05-05T00:11:58.061Z,500.00
2023-05-05T00:12:58.096Z,500.00
2023-05-05T00:13:58.067Z,500.00
2023-05-05T00:14:58.055Z,500.00
2023-05-05T00:15:58.092Z,500.00
2023-05-05T00:16:58.087Z,500.00
2023-05-05T00:17:58.076Z,500.00
2023-05-05T00:18:58.049Z,500.00
2023-05-05T00:19:58.027Z,500.00
2023-05-05T00:20:58.032Z,501.00
2023-05-05T00:21:58.019Z,501.00
2023-05-05T00:22:58.034Z,501.00
2023-05-05T00:23:58.016Z,500.00
2023-05-05T00:24:58.007Z,500.00
2023-05-05T00:25:58.001Z,501.00
2023-05-05T00:26:58.024Z,503.00
2023-05-05T00:27:57.993Z,501.00
2023-05-05T00:28:57.988Z,502.00
2023-05-05T00:29:57.974Z,502.00
2023-05-05T00:30:57.983Z,504.00
2023-05-05T00:31:57.956Z,503.00
2023-05-05T00:32:57.983Z,502.00
2023-05-05T00:33:57.953Z,500.00
2023-05-05T00:34:57.957Z,502.00
2023-05-05T00:35:57.965Z,500.00
2023-05-05T00:36:57.976Z,504.00
2023-05-05T00:37:57.956Z,502.00
2023-05-05T00:38:57.952Z,500.00
2023-05-05T00:39:57.952Z,502.00
2023-05-05T00:40:57.952Z,503.00
2023-05-05T00:41:57.941Z,500.00
2023-05-05T00:42:57.969Z,500.00
2023-05-05T00:43:57.943Z,505.00
2023-05-05T00:44:57.936Z,500.00
2023-05-05T00:45:57.983Z,500.00
2023-05-05T00:46:57.951Z,502.00
2023-05-05T00:47:57.955Z,501.00
2023-05-05T00:48:57.975Z,501.00
2023-05-05T00:49:57.921Z,502.00
2023-05-05T00:50:57.930Z,503.00
2023-05-05T00:51:57.902Z,502.00
2023-05-05T00:52:57.913Z,505.00
2023-05-05T00:53:57.896Z,503.00
2023-05-05T00:54:57.896Z,500.00
2023-05-05T00:55:57.886Z,504.00
2023-05-05T00:56:57.882Z,504.00
2023-05-05T00:57:57.907Z,504.00
2023-05-05T00:58:57.898Z,502.00
2023-05-05T00:59:57.913Z,502.00
2023-05-05T01:00:57.875Z,505.00
2023-05-05T01:01:57.923Z,503.00
2023-05-05T01:02:58.050Z,500.00
2023-05-05T01:03:57.977Z,503.00
2023-05-05T01:04:57.875Z,503.00
2023-05-05T01:05:57.910Z,505.00
2023-05-05T01:06:57.870Z,504.00
2023-05-05T01:07:57.870Z,503.00
2023-05-05T01:08:57.867Z,502.00
2023-05-05T01:10:10.957Z,503.00
2023-05-05T01:10:57.870Z,504.00
2023-05-05T01:11:57.878Z,504.00
2023-05-05T01:12:57.863Z,506.00
2023-05-05T01:13:57.827Z,504.00
2023-05-05T01:14:57.844Z,503.00
2023-05-05T01:15:57.826Z,500.00
2023-05-05T01:16:57.793Z,502.00
2023-05-05T01:17:57.819Z,500.00
2023-05-05T01:18:57.755Z,501.00
2023-05-05T01:19:57.738Z,500.00
2023-05-05T01:20:57.758Z,502.00
2023-05-05T01:21:57.737Z,501.00
2023-05-05T01:22:57.710Z,504.00
2023-05-05T01:23:57.699Z,500.00
2023-05-05T01:24:57.692Z,502.00
2023-05-05T01:25:57.689Z,503.00
2023-05-05T01:26:57.673Z,500.00
2023-05-05T01:27:57.675Z,506.00
2023-05-05T01:28:57.670Z,505.00
2023-05-05T01:29:57.659Z,505.00
2023-05-05T01:30:57.680Z,501.00
2023-05-05T01:31:57.769Z,503.00
2023-05-05T01:32:57.666Z,506.00
2023-05-05T01:33:57.646Z,504.00
2023-05-05T01:34:57.639Z,503.00
2023-05-05T01:35:57.631Z,506.00
2023-05-05T01:36:57.625Z,506.00
2023-05-05T01:37:57.622Z,506.00
2023-05-05T01:38:57.607Z,506.00
2023-05-05T01:39:57.603Z,509.00
2023-05-05T01:40:57.601Z,505.00
2023-05-05T01:41:57.592Z,508.00
2023-05-05T01:42:57.594Z,506.00
2023-05-05T01:43:57.579Z,504.00
2023-05-05T01:44:57.606Z,505.00
2023-05-05T01:45:57.625Z,505.00
2023-05-05T01:46:57.584Z,503.00
2023-05-05T01:47:57.646Z,501.00
2023-05-05T01:48:57.554Z,503.00
2023-05-05T01:49:57.553Z,501.00
2023-05-05T01:50:57.559Z,504.00
2023-05-05T01:51:57.539Z,502.00
2023-05-05T01:52:57.528Z,501.00
2023-05-05T01:53:57.520Z,501.00
2023-05-05T01:54:57.507Z,503.00
2023-05-05T01:55:57.520Z,503.00
2023-05-05T01:56:57.489Z,506.00
2023-05-05T01:57:57.472Z,505.00
2023-05-05T01:58:57.461Z,501.00
2023-05-05T01:59:57.448Z,500.00
2023-05-05T02:00:57.471Z,501.00
2023-05-05T02:01:57.430Z,505.00
2023-05-05T02:02:57.622Z,503.00
2023-05-05T02:03:57.438Z,503.00
2023-05-05T02:04:57.405Z,507.00
2023-05-05T02:05:57.387Z,502.00
2023-05-05T02:06:57.384Z,507.00
2023-05-05T02:07:57.369Z,505.00
2023-05-05T02:08:57.359Z,501.00
2023-05-05T02:09:57.353Z,504.00
2023-05-05T02:10:57.353Z,507.00
2023-05-05T02:11:57.335Z,506.00
2023-05-05T02:12:57.434Z,505.00
2023-05-05T02:13:57.337Z,507.00
2023-05-05T02:14:57.303Z,506.00
2023-05-05T02:15:57.304Z,507.00
2023-05-05T02:16:57.277Z,508.00
2023-05-05T02:17:57.312Z,505.00
2023-05-05T02:18:57.276Z,507.00
2023-05-05T02:19:57.248Z,507.00
2023-05-05T02:20:57.242Z,508.00
2023-05-05T02:21:57.247Z,506.00
2023-05-05T02:22:57.206Z,509.00
2023-05-05T02:23:57.190Z,508.00
2023-05-05T02:24:57.182Z,507.00
2023-05-05T02:25:57.174Z,505.00
2023-05-05T02:26:57.159Z,507.00
2023-05-05T02:27:57.134Z,507.00
2023-05-05T02:28:57.122Z,507.00
2023-05-05T02:29:57.112Z,509.00
2023-05-05T02:30:57.148Z,511.00
2023-05-05T02:31:57.072Z,506.00
2023-05-05T02:32:57.078Z,504.00
2023-05-05T02:33:57.065Z,507.00
2023-05-05T02:34:57.062Z,505.00
2023-05-05T02:35:57.034Z,503.00
2023-05-05T02:36:57.015Z,505.00
2023-05-05T02:37:56.999Z,505.00
2023-05-05T02:38:56.988Z,507.00
2023-05-05T02:39:56.978Z,504.00
2023-05-05T02:40:56.973Z,502.00
2023-05-05T02:41:56.963Z,502.00
2023-05-05T02:42:56.975Z,502.00
2023-05-05T02:43:56.943Z,505.00
2023-05-05T02:44:56.926Z,506.00
2023-05-05T02:45:56.917Z,504.00
2023-05-05T02:46:56.912Z,507.00
2023-05-05T02:47:56.925Z,504.00
2023-05-05T02:48:56.881Z,501.00
2023-05-05T02:49:56.870Z,503.00
2023-05-05T02:50:56.870Z,504.00
2023-05-05T02:51:56.842Z,503.00
2023-05-05T02:52:56.830Z,506.00
2023-05-05T02:53:56.814Z,502.00
2023-05-05T02:54:56.800Z,502.00
2023-05-05T02:55:56.813Z,503.00
2023-05-05T02:56:56.815Z,503.00
2023-05-05T02:57:56.797Z,502.00
2023-05-05T02:58:56.761Z,505.00
2023-05-05T02:59:56.747Z,507.00
2023-05-05T03:00:56.742Z,503.00
2023-05-05T03:01:56.814Z,505.00
2023-05-05T03:02:56.791Z,508.00
2023-05-05T03:03:56.737Z,505.00
2023-05-05T03:04:56.696Z,503.00
2023-05-05T03:05:56.687Z,505.00
2023-05-05T03:06:56.692Z,503.00
2023-05-05T03:07:56.656Z,508.00
2023-05-05T03:08:56.647Z,508.00
2023-05-05T03:09:56.633Z,508.00
2023-05-05T03:10:56.624Z,500.00
2023-05-05T03:11:56.614Z,502.00
2023-05-05T03:12:56.632Z,505.00
2023-05-05T03:13:56.590Z,500.00
2023-05-05T03:14:56.578Z,502.00
2023-05-05T03:15:56.585Z,500.00
2023-05-05T03:16:56.584Z,502.00
2023-05-05T03:17:56.618Z,500.00
2023-05-05T03:18:56.540Z,501.00
2023-05-05T03:19:56.530Z,502.00
2023-05-05T03:20:56.521Z,506.00
2023-05-05T03:21:56.510Z,502.00
2023-05-05T03:22:56.521Z,503.00
2023-05-05T03:23:56.547Z,502.00
2023-05-05T03:24:56.477Z,506.00
2023-05-05T03:25:56.470Z,502.00
2023-05-05T03:26:56.462Z,502.00
2023-05-05T03:27:56.449Z,504.00
2023-05-05T03:28:56.441Z,503.00
2023-05-05T03:29:56.451Z,503.00
2023-05-05T03:30:56.447Z,505.00
2023-05-05T03:31:56.476Z,502.00
2023-05-05T03:32:56.443Z,504.00
2023-05-05T03:33:56.423Z,505.00
2023-05-05T03:34:56.424Z,507.00
2023-05-05T03:35:56.419Z,506.00
2023-05-05T03:36:56.431Z,506.00
2023-05-05T03:37:56.421Z,507.00
2023-05-05T03:38:56.455Z,504.00
2023-05-05T03:39:56.428Z,505.00
2023-05-05T03:40:56.449Z,506.00
2023-05-05T03:41:56.441Z,504.00
2023-05-05T03:42:56.453Z,507.00
2023-05-05T03:43:56.456Z,501.00
2023-05-05T03:44:56.458Z,504.00
2023-05-05T03:45:56.491Z,503.00
2023-05-05T03:46:56.471Z,505.00
2023-05-05T03:47:56.485Z,503.00
2023-05-05T03:48:56.468Z,505.00
2023-05-05T03:49:56.472Z,506.00
2023-05-05T03:50:56.488Z,501.00
2023-05-05T03:51:56.485Z,507.00
2023-05-05T03:52:56.488Z,502.00
2023-05-05T03:53:56.510Z,501.00
2023-05-05T03:54:56.521Z,500.00
2023-05-05T03:55:56.499Z,500.00
2023-05-05T03:56:56.534Z,500.00
2023-05-05T03:57:56.509Z,505.00
2023-05-05T03:58:56.507Z,505.00
2023-05-05T03:59:56.519Z,505.00
2023-05-05T04:00:56.534Z,505.00
2023-05-05T04:01:56.558Z,505.00
2023-05-05T04:02:57.278Z,504.00
2023-05-05T04:03:56.626Z,502.00
2023-05-05T04:04:56.539Z,506.00
2023-05-05T04:05:56.568Z,505.00
2023-05-05T04:06:56.557Z,505.00
2023-05-05T04:07:56.559Z,507.00
2023-05-05T04:08:56.565Z,505.00
2023-05-05T04:09:56.580Z,503.00
2023-05-05T04:10:56.702Z,507.00
2023-05-05T04:11:56.589Z,503.00
2023-05-05T04:12:56.705Z,507.00
2023-05-05T04:13:56.637Z,506.00
2023-05-05T04:14:56.642Z,507.00
2023-05-05T04:15:56.651Z,508.00
2023-05-05T04:16:56.621Z,507.00
2023-05-05T04:17:56.677Z,505.00
2023-05-05T04:18:56.635Z,504.00
2023-05-05T04:19:56.639Z,506.00
2023-05-05T04:20:56.668Z,507.00
2023-05-05T04:21:56.675Z,508.00
2023-05-05T04:22:56.666Z,509.00
2023-05-05T04:23:56.675Z,510.00
2023-05-05T04:24:56.674Z,509.00
2023-05-05T04:25:56.702Z,508.00
2023-05-05T04:26:56.719Z,507.00
2023-05-05T04:27:56.702Z,506.00
2023-05-05T04:28:56.721Z,503.00
2023-05-05T04:29:56.733Z,506.00
2023-05-05T04:30:56.767Z,507.00
2023-05-05T04:31:56.731Z,503.00
2023-05-05T04:32:56.753Z,504.00
2023-05-05T04:33:56.742Z,508.00
2023-05-05T04:34:56.757Z,508.00
2023-05-05T04:35:56.751Z,502.00
2023-05-05T04:36:56.766Z,500.00
2023-05-05T04:37:56.758Z,502.00
2023-05-05T04:38:56.814Z,503.00
2023-05-05T04:39:56.772Z,507.00
2023-05-05T04:40:56.779Z,505.00
2023-05-05T04:41:56.826Z,506.00
2023-05-05T04:42:56.818Z,504.00
2023-05-05T04:43:56.798Z,500.00
2023-05-05T04:44:56.812Z,503.00
2023-05-05T04:45:56.795Z,502.00
2023-05-05T04:46:56.835Z,504.00
2023-05-05T04:47:56.835Z,506.00
2023-05-05T04:48:56.805Z,503.00
2023-05-05T04:49:56.807Z,506.00
2023-05-05T04:50:56.818Z,506.00
2023-05-05T04:51:56.815Z,507.00
2023-05-05T04:52:56.838Z,507.00
2023-05-05T04:53:56.833Z,507.00
2023-05-05T04:54:56.846Z,508.00
2023-05-05T04:55:56.838Z,501.00
2023-05-05T04:56:56.841Z,503.00
2023-05-05T04:57:56.845Z,509.00
2023-05-05T04:58:56.986Z,501.00
2023-05-05T04:59:56.856Z,506.00
2023-05-05T05:00:56.853Z,503.00
2023-05-05T05:01:56.896Z,502.00
2023-05-05T05:02:56.940Z,506.00
2023-05-05T05:03:56.907Z,501.00
2023-05-05T05:04:56.881Z,506.00
2023-05-05T05:05:56.896Z,503.00
2023-05-05T05:06:59.247Z,507.00
2023-05-05T05:07:56.893Z,509.00
2023-05-05T05:08:56.885Z,509.00
2023-05-05T05:09:56.879Z,508.00
2023-05-05T05:10:56.872Z,502.00
2023-05-05T05:11:56.856Z,500.00
2023-05-05T05:12:57.207Z,500.00
2023-05-05T05:13:56.846Z,502.00
2023-05-05T05:14:56.858Z,501.00
2023-05-05T05:15:56.857Z,501.00
2023-05-05T05:16:56.830Z,503.00
2023-05-05T05:17:57.187Z,500.00
2023-05-05T05:18:56.813Z,502.00
2023-05-05T05:19:56.810Z,500.00
2023-05-05T05:20:56.794Z,500.00
2023-05-05T05:21:56.782Z,501.00
2023-05-05T05:22:57.175Z,504.00
2023-05-05T05:23:56.762Z,504.00
2023-05-05T05:24:56.762Z,505.00
2023-05-05T05:25:56.750Z,504.00
2023-05-05T05:26:56.744Z,502.00
2023-05-05T05:28:09.009Z,503.00
2023-05-05T05:28:56.725Z,504.00
2023-05-05T05:29:56.746Z,504.00
2023-05-05T05:30:56.719Z,503.00
2023-05-05T05:31:57.178Z,497.00
2023-05-05T05:32:56.722Z,490.00
2023-05-05T05:33:56.689Z,500.00
2023-05-05T05:34:56.682Z,501.00
2023-05-05T05:35:56.671Z,505.00
2023-05-05T05:36:57.150Z,503.00
2023-05-05T05:37:56.674Z,501.00
2023-05-05T05:38:56.663Z,500.00
2023-05-05T05:39:56.649Z,504.00
2023-05-05T05:40:56.634Z,501.00
2023-05-05T05:41:56.662Z,502.00
2023-05-05T05:42:56.661Z,502.00
2023-05-05T05:43:56.612Z,502.00
2023-05-05T05:44:57.601Z,500.00
2023-05-05T05:45:56.627Z,504.00
2023-05-05T05:46:56.677Z,506.00
2023-05-05T05:47:56.627Z,507.00
2023-05-05T05:48:56.585Z,514.00
2023-05-05T05:49:56.592Z,520.00
2023-05-05T05:50:56.853Z,521.00
2023-05-05T05:51:56.654Z,520.00
2023-05-05T05:52:56.654Z,525.00
2023-05-05T05:53:58.767Z,531.00
2023-05-05T05:54:56.547Z,543.00
2023-05-05T05:55:56.684Z,550.00
2023-05-05T05:56:56.652Z,549.00
2023-05-05T05:57:56.532Z,555.00
2023-05-05T05:58:56.505Z,559.00
2023-05-05T06:02:03.926Z,565.00
2023-05-05T06:06:11.988Z,566.00
2023-05-05T06:06:59.602Z,566.00
2023-05-05T06:07:56.642Z,567.00
2023-05-05T06:08:56.673Z,575.00
2023-05-05T06:09:56.329Z,594.00
2023-05-05T06:11:59.501Z,567.00
2023-05-05T06:15:11.874Z,568.00
2023-05-05T06:15:56.340Z,568.00
2023-05-05T06:16:56.193Z,582.00
2023-05-05T06:17:56.229Z,604.00
2023-05-05T06:18:56.155Z,634.00
2023-05-05T06:19:56.142Z,681.00
2023-05-05T06:20:56.173Z,699.00
2023-05-05T06:21:56.319Z,668.00
2023-05-05T06:23:56.077Z,662.00
2023-05-05T06:24:56.033Z,663.00
2023-05-05T06:25:56.035Z,659.00
2023-05-05T06:26:56.226Z,652.00
2023-05-05T06:27:55.991Z,639.00
2023-05-05T06:28:56.967Z,647.00
2023-05-05T06:29:55.971Z,654.00
2023-05-05T06:30:55.897Z,659.00
2023-05-05T06:31:55.933Z,662.00
2023-05-05T06:32:56.116Z,656.00
2023-05-05T06:33:56.186Z,657.00
2023-05-05T06:34:55.868Z,648.00
2023-05-05T06:35:55.857Z,643.00
2023-05-05T06:36:55.892Z,647.00
2023-05-05T06:37:55.815Z,636.00
2023-05-05T06:38:56.212Z,634.00
2023-05-05T06:39:55.899Z,624.00
2023-05-05T06:40:55.885Z,613.00
2023-05-05T06:41:55.935Z,609.00
2023-05-05T06:42:55.962Z,613.00
2023-05-05T06:43:56.187Z,622.00
2023-05-05T06:44:56.007Z,614.00
2023-05-05T06:45:56.410Z,613.00
2023-05-05T06:46:57.194Z,613.00
2023-05-05T06:47:56.253Z,618.00
2023-05-05T06:48:57.143Z,622.00
2023-05-05T06:49:56.261Z,620.00
2023-05-05T06:50:56.199Z,622.00
2023-05-05T06:51:56.228Z,632.00
2023-05-05T06:52:56.260Z,630.00
2023-05-05T12:17:02.521Z,500.00
2023-05-05T12:18:03.790Z,500.00
2023-05-05T12:19:03.473Z,500.00
2023-05-05T12:20:03.547Z,500.00
2023-05-05T12:21:03.594Z,500.00
2023-05-05T12:22:03.666Z,495.00
2023-05-05T12:23:03.732Z,499.00
2023-05-05T12:24:03.775Z,503.00
2023-05-05T12:25:03.821Z,500.00
2023-05-05T12:26:03.884Z,498.00
2023-05-05T12:27:03.932Z,503.00
2023-05-05T12:28:03.974Z,504.00
2023-05-05T12:29:04.026Z,500.00
2023-05-05T12:30:04.071Z,500.00
2023-05-05T12:31:04.165Z,501.00
2023-05-05T12:32:04.281Z,501.00
2023-05-05T12:33:04.438Z,500.00
2023-05-05T12:34:04.211Z,503.00
2023-05-05T12:35:04.261Z,504.00
2023-05-05T12:36:04.298Z,505.00
2023-05-05T12:37:04.359Z,508.00
2023-05-05T12:38:04.378Z,502.00
2023-05-05T12:39:04.434Z,508.00
2023-05-05T12:40:04.437Z,504.00
2023-05-05T12:41:04.468Z,503.00
2023-05-05T12:42:04.552Z,500.00
2023-05-05T12:43:04.537Z,505.00
2023-05-05T12:44:05.020Z,502.00
2023-05-05T12:45:04.648Z,500.00
2023-05-05T12:46:04.689Z,501.00
2023-05-05T12:47:04.705Z,504.00
2023-05-05T12:48:04.762Z,511.00
2023-05-05T12:49:05.054Z,509.00
2023-05-05T12:50:05.024Z,502.00
2023-05-05T12:51:04.871Z,500.00
2023-05-05T12:52:04.896Z,509.00
2023-05-05T12:53:04.922Z,504.00
2023-05-05T12:54:04.954Z,503.00
2023-05-05T12:55:05.025Z,501.00
2023-05-05T12:56:05.016Z,504.00
2023-05-05T12:57:05.058Z,510.00
2023-05-05T12:58:05.119Z,505.00
2023-05-05T12:59:05.157Z,502.00
2023-05-05T13:00:05.304Z,508.00
2023-05-05T13:01:05.263Z,509.00
2023-05-05T13:02:05.263Z,502.00
2023-05-05T13:03:05.343Z,502.00
2023-05-05T13:04:05.357Z,504.00
2023-05-05T13:05:05.637Z,499.00
2023-05-05T13:06:05.432Z,500.00
2023-05-05T13:07:05.470Z,501.00
2023-05-05T13:08:05.516Z,504.00
2023-05-05T13:09:05.578Z,506.00
2023-05-05T13:10:06.038Z,501.00
2023-05-05T13:11:05.673Z,525.00
2023-05-05T13:12:05.708Z,650.00
2023-05-05T13:13:06.067Z,791.00
2023-05-05T13:14:05.807Z,1046.00
2023-05-05T13:15:05.962Z,1302.00
2023-05-05T13:16:05.865Z,1289.00
2023-05-05T13:17:05.860Z,1370.00
2023-05-05T13:18:05.905Z,1348.00
2023-05-05T13:19:05.884Z,1395.00
2023-05-05T13:20:05.897Z,1387.00
2023-05-05T13:21:06.002Z,1396.00
2023-05-05T13:22:05.922Z,1379.00
2023-05-05T13:23:05.921Z,1350.00
2023-05-05T13:24:21.481Z,1356.00
2023-05-05T13:25:05.967Z,1357.00
2023-05-05T13:26:05.957Z,1360.00
2023-05-05T13:27:05.939Z,1334.00
2023-05-05T13:28:05.947Z,1300.00
2023-05-05T13:29:05.942Z,1279.00
2023-05-05T13:30:06.063Z,1196.00
2023-05-05T13:31:05.977Z,1165.00
2023-05-05T13:32:05.951Z,1107.00
2023-05-05T13:33:06.002Z,1044.00
2023-05-05T13:34:06.048Z,998.00
2023-05-05T13:35:06.152Z,1007.00
2023-05-05T13:36:05.951Z,970.00
2023-05-05T13:37:05.982Z,983.00
2023-05-05T13:38:05.950Z,974.00
2023-05-05T13:39:05.961Z,937.00
2023-05-05T13:40:05.989Z,905.00
2023-05-05T13:41:05.963Z,874.00
2023-05-05T13:42:05.967Z,808.00
2023-05-05T13:43:05.986Z,810.00
2023-05-05T13:44:05.995Z,816.00
2023-05-05T13:45:06.061Z,808.00
2023-05-05T13:46:18.782Z,806.00
2023-05-05T13:47:06.056Z,806.00
2023-05-05T13:48:06.065Z,798.00
2023-05-05T13:49:06.052Z,790.00
2023-05-05T13:50:06.025Z,760.00
2023-05-05T13:51:06.005Z,733.00
2023-05-05T13:52:06.026Z,692.00
2023-05-05T13:53:06.097Z,661.00
2023-05-05T13:54:06.009Z,670.00
2023-05-05T13:55:06.051Z,668.00
2023-05-05T13:56:06.015Z,658.00
2023-05-05T13:57:06.008Z,657.00
2023-05-05T13:58:06.024Z,640.00
2023-05-05T13:59:06.007Z,630.00
2023-05-05T14:00:06.026Z,638.00
2023-05-05T14:01:06.551Z,636.00
2023-05-05T14:02:06.019Z,633.00
2023-05-05T14:03:06.121Z,620.00
2023-05-05T14:04:06.363Z,608.00
2023-05-05T14:05:06.144Z,607.00
2023-05-05T14:06:06.037Z,614.00
2023-05-05T14:07:06.037Z,622.00
2023-05-05T14:08:06.016Z,615.00
2023-05-05T14:09:06.497Z,615.00
2023-05-05T14:10:06.110Z,606.00
2023-05-05T14:11:06.036Z,610.00
2023-05-05T14:12:06.027Z,603.00
2023-05-05T14:13:06.067Z,595.00
2023-05-05T14:14:06.074Z,599.00
2023-05-05T14:15:06.110Z,600.00
2023-05-05T14:16:06.049Z,602.00
2023-05-05T14:17:06.079Z,595.00
2023-05-05T14:18:06.052Z,594.00
2023-05-05T14:19:06.031Z,595.00
2023-05-05T14:20:06.089Z,592.00
2023-05-05T14:21:06.019Z,591.00
2023-05-05T14:22:06.020Z,578.00
2023-05-05T14:23:06.026Z,574.00
2023-05-05T14:24:06.027Z,565.00
2023-05-05T14:25:06.198Z,558.00
2023-05-05T14:26:06.038Z,548.00
2023-05-05T14:27:06.033Z,540.00
2023-05-05T14:28:06.023Z,544.00
2023-05-05T14:29:06.043Z,548.00
2023-05-05T14:30:06.035Z,545.00
2023-05-05T14:31:06.077Z,547.00
2023-05-05T14:32:06.091Z,537.00
2023-05-05T14:33:06.136Z,547.00
2023-05-05T14:34:06.557Z,533.00
2023-05-05T14:35:06.204Z,540.00
2023-05-05T14:36:06.085Z,543.00
2023-05-05T14:37:06.088Z,522.00
2023-05-05T14:38:06.155Z,529.00
2023-05-05T14:39:06.561Z,540.00
2023-05-05T14:40:06.194Z,533.00
2023-05-05T14:41:06.194Z,532.00
2023-05-05T14:42:06.100Z,543.00
2023-05-05T14:43:06.119Z,529.00
2023-05-05T14:44:06.105Z,520.00
2023-05-05T14:45:06.257Z,521.00
2023-05-05T14:46:06.135Z,530.00
2023-05-05T14:47:06.113Z,505.00
2023-05-05T14:48:06.110Z,508.00
2023-05-05T14:49:06.117Z,511.00
2023-05-05T14:50:06.123Z,513.00
2023-05-05T14:51:06.147Z,505.00
2023-05-05T14:52:06.142Z,513.00
2023-05-05T14:53:06.122Z,517.00
2023-05-05T14:54:14.227Z,508.00
2023-05-05T14:55:06.329Z,509.00
2023-05-05T14:56:06.137Z,501.00
2023-05-05T14:57:06.593Z,504.00
2023-05-05T14:58:06.128Z,497.00
2023-05-05T14:59:06.141Z,498.00
2023-05-05T15:00:06.144Z,500.00
2023-05-05T15:01:06.259Z,501.00
2023-05-05T15:02:06.191Z,506.00
2023-05-05T15:03:06.246Z,500.00
2023-05-05T15:04:06.257Z,513.00
2023-05-05T15:05:06.346Z,512.00
2023-05-05T15:06:06.571Z,521.00
2023-05-05T15:07:06.197Z,523.00
2023-05-05T15:08:06.209Z,529.00
2023-05-05T15:09:06.227Z,512.00
2023-05-05T15:10:06.217Z,509.00
2023-05-05T15:11:06.239Z,500.00
2023-05-05T15:12:06.223Z,533.00
2023-05-05T15:13:06.447Z,545.00
2023-05-05T15:14:06.235Z,547.00
2023-05-05T15:15:06.393Z,551.00
2023-05-05T15:16:06.310Z,552.00
2023-05-05T15:17:06.252Z,550.00
2023-05-05T15:18:06.280Z,547.00
2023-05-05T15:19:06.275Z,558.00
2023-05-05T15:20:06.280Z,559.00
2023-05-05T15:21:06.297Z,551.00
2023-05-05T15:22:06.302Z,551.00
2023-05-05T15:23:06.313Z,551.00
2023-05-05T15:24:06.334Z,548.00
2023-05-05T15:25:06.473Z,549.00
2023-05-05T15:26:06.342Z,539.00
2023-05-05T15:27:06.368Z,543.00
2023-05-05T15:28:06.354Z,544.00
2023-05-05T15:29:06.383Z,541.00
2023-05-05T15:30:06.368Z,533.00
2023-05-05T15:31:06.372Z,547.00
2023-05-05T15:32:06.416Z,552.00
2023-05-05T15:33:06.442Z,557.00
2023-05-05T15:34:06.403Z,559.00
2023-05-05T15:35:07.417Z,572.00
2023-05-05T15:36:06.429Z,586.00
2023-05-05T15:37:06.428Z,594.00
2023-05-05T15:38:06.451Z,612.00
2023-05-05T15:39:06.460Z,623.00
2023-05-05T15:40:06.464Z,623.00
2023-05-05T15:41:06.478Z,623.00
2023-05-05T15:42:06.477Z,633.00
2023-05-05T15:43:06.486Z,645.00
2023-05-05T15:44:06.489Z,646.00
2023-05-05T15:45:06.902Z,650.00
2023-05-05T15:46:06.518Z,656.00
2023-05-05T15:47:06.565Z,663.00
2023-05-05T15:48:06.646Z,687.00
2023-05-05T15:49:06.552Z,689.00
2023-05-05T15:50:06.596Z,718.00
2023-05-05T15:51:06.603Z,734.00
2023-05-05T15:52:06.604Z,757.00
2023-05-05T15:53:06.596Z,783.00
2023-05-05T15:54:06.605Z,802.00
2023-05-05T15:55:06.811Z,814.00
2023-05-05T15:56:06.629Z,834.00
2023-05-05T15:57:06.643Z,832.00
2023-05-05T15:58:06.664Z,846.00
2023-05-05T15:59:07.495Z,862.00
2023-05-05T16:00:06.694Z,862.00
2023-05-05T16:01:06.970Z,890.00
2023-05-05T16:02:06.794Z,892.00
2023-05-05T16:03:06.855Z,907.00
2023-05-05T16:04:06.791Z,920.00
2023-05-05T16:05:07.113Z,922.00
2023-05-05T16:06:06.851Z,940.00
2023-05-05T16:07:06.881Z,940.00
2023-05-05T16:08:06.909Z,954.00
2023-05-05T16:09:06.941Z,966.00
2023-05-05T16:10:06.960Z,965.00
2023-05-05T16:11:06.991Z,976.00
2023-05-05T16:12:07.028Z,988.00
2023-05-05T16:13:07.199Z,1020.00
2023-05-05T16:14:07.072Z,1014.00
2023-05-05T16:15:07.342Z,1025.00
2023-05-05T16:16:07.145Z,1052.00
2023-05-05T16:17:07.372Z,1042.00
2023-05-05T16:18:07.236Z,1048.00
2023-05-05T16:19:07.239Z,1057.00
2023-05-05T16:20:07.282Z,1081.00
2023-05-05T16:21:07.286Z,1090.00
2023-05-05T16:22:07.309Z,1091.00
2023-05-05T16:23:07.352Z,1099.00
2023-05-05T16:24:07.370Z,1103.00
2023-05-05T16:25:07.666Z,1123.00
2023-05-05T16:26:07.438Z,1134.00
2023-05-05T16:27:07.455Z,1117.00
2023-05-05T16:28:07.485Z,1145.00
2023-05-05T16:29:07.527Z,1158.00
2023-05-05T16:30:07.554Z,1147.00
2023-05-05T16:31:07.589Z,1159.00
2023-05-05T16:32:07.626Z,1158.00
2023-05-05T16:33:07.782Z,1175.00
2023-05-05T16:34:07.687Z,1182.00
2023-05-05T16:35:07.922Z,1194.00
2023-05-05T16:36:07.737Z,1192.00
2023-05-05T16:37:07.788Z,1214.00
2023-05-05T16:38:07.915Z,1193.00
2023-05-05T16:39:07.832Z,1207.00
2023-05-05T16:40:07.865Z,1226.00
2023-05-05T16:41:07.938Z,1230.00
2023-05-05T16:42:07.913Z,1230.00
2023-05-05T16:43:07.946Z,1232.00
2023-05-05T16:44:07.992Z,1248.00
2023-05-05T16:45:08.399Z,1261.00
2023-05-05T16:46:08.108Z,1272.00
2023-05-05T16:47:08.068Z,1264.00
2023-05-05T16:48:09.215Z,1256.00
2023-05-05T16:49:08.232Z,1263.00
2023-05-05T16:50:08.177Z,1281.00
2023-05-05T16:51:08.210Z,1278.00
2023-05-05T16:52:08.248Z,1286.00
2023-05-05T16:53:08.288Z,1282.00
2023-05-05T16:54:08.329Z,1293.00
2023-05-05T16:55:08.530Z,1303.00
2023-05-05T16:56:08.407Z,1302.00
2023-05-05T16:57:08.420Z,1300.00
2023-05-05T16:58:08.464Z,1312.00
2023-05-05T16:59:08.489Z,1315.00
2023-05-05T17:00:08.534Z,1305.00
2023-05-05T17:01:08.609Z,1337.00
2023-05-05T17:02:08.713Z,1333.00
2023-05-05T17:03:08.628Z,1327.00
2023-05-05T17:04:08.673Z,1340.00
2023-05-05T17:05:09.108Z,1333.00
2023-05-05T17:06:08.738Z,1355.00
2023-05-05T17:07:08.778Z,1360.00
2023-05-05T17:08:08.814Z,1341.00
2023-05-05T17:09:08.861Z,1344.00
2023-05-05T17:10:08.900Z,1346.00
2023-05-05T17:11:10.979Z,1352.00
2023-05-05T17:12:08.946Z,1387.00
2023-05-05T17:13:09.006Z,1369.00
2023-05-05T17:14:08.987Z,1375.00
2023-05-05T17:15:09.194Z,1378.00
2023-05-05T17:16:09.107Z,1380.00
2023-05-05T17:17:09.024Z,1369.00
2023-05-05T17:18:09.110Z,1374.00
2023-05-05T17:19:09.054Z,1379.00
2023-05-05T17:20:09.066Z,1379.00
2023-05-05T17:21:09.166Z,1402.00
2023-05-05T17:22:09.077Z,1395.00
2023-05-05T17:23:09.086Z,1389.00
2023-05-05T17:24:09.089Z,1403.00
2023-05-05T17:25:09.268Z,1393.00
2023-05-05T17:26:09.117Z,1391.00
2023-05-05T17:27:09.126Z,1399.00
2023-05-05T17:28:09.132Z,1400.00
2023-05-05T17:29:10.923Z,1400.00
2023-05-05T17:30:09.150Z,1401.00
2023-05-05T17:31:09.168Z,1403.00
2023-05-05T17:33:08.206Z,1402.00
2023-05-05T17:34:09.180Z,1428.00
2023-05-05T17:35:09.406Z,1418.00
2023-05-05T17:36:09.181Z,1417.00
2023-05-05T17:37:09.210Z,1409.00
2023-05-05T17:38:09.191Z,1407.00
2023-05-05T17:39:09.203Z,1430.00
2023-05-05T17:40:09.237Z,1424.00
2023-05-05T17:41:09.858Z,1427.00
2023-05-05T17:42:09.991Z,1430.00
2023-05-05T17:43:09.867Z,1425.00
2023-05-05T17:44:09.281Z,1430.00
2023-05-05T17:45:09.477Z,1421.00
2023-05-05T17:46:09.840Z,1424.00
2023-05-05T17:47:09.674Z,1430.00
2023-05-05T17:48:09.627Z,1428.00
2023-05-05T17:49:09.291Z,1444.00
2023-05-05T17:50:09.303Z,1442.00
2023-05-05T17:51:09.318Z,1445.00
2023-05-05T17:52:09.318Z,1431.00
2023-05-05T17:53:09.434Z,1438.00
2023-05-05T17:54:09.358Z,1431.00
2023-05-05T17:55:09.558Z,1453.00
2023-05-05T17:56:09.377Z,1449.00
2023-05-05T17:57:09.378Z,1436.00
2023-05-05T17:58:09.387Z,1436.00